Time;durP1;ratioP1;P1;durP2;ratioP2;P2;SDS_P1;SDS_P2;PMS_P1;PMS_P2;Temp;Humidity;BMP_temperature;BMP_pressure;BME280_temperature;BME280_humidity;BME280_pressure;Samples;Min_cycle;Max_cycle;Signal;HPM_P1;HPM_P2
2022/03/02 00:01:41;;;;;;;31.83;14.10;;;7.10;99.90;;;;;;5022730;28;20394;-37
2022/03/02 00:04:07;;;;;;;29.70;14.52;;;7.10;99.90;;;;;;5026881;28;20510;-30
2022/03/02 00:06:33;;;;;;;29.00;13.15;;;7.10;99.90;;;;;;5029153;28;20049;-41
2022/03/02 00:08:59;;;;;;;32.13;14.00;;;7.00;99.90;;;;;;5026989;28;20028;-30
2022/03/02 00:11:24;;;;;;;31.63;14.98;;;7.00;99.90;;;;;;5026831;28;20029;-32
2022/03/02 00:13:50;;;;;;;27.65;14.05;;;6.90;99.90;;;;;;5029896;28;20116;-34
2022/03/02 00:16:19;;;;;;;32.83;13.48;;;6.90;99.90;;;;;;5032490;28;20030;-35
2022/03/02 00:18:44;;;;;;;30.55;15.25;;;6.90;99.90;;;;;;5022248;28;20037;-34
2022/03/02 00:21:10;;;;;;;31.70;14.18;;;6.90;99.90;;;;;;5022620;28;20052;-35
2022/03/02 00:23:36;;;;;;;35.42;14.50;;;6.80;99.90;;;;;;5022088;28;20513;-31
2022/03/02 00:26:01;;;;;;;28.48;12.95;;;6.80;99.90;;;;;;5018942;28;20394;-31
2022/03/02 00:28:27;;;;;;;29.17;14.77;;;6.70;99.90;;;;;;5016476;28;20096;-36
2022/03/02 00:30:53;;;;;;;29.20;13.20;;;6.70;99.90;;;;;;5021097;28;20036;-32
2022/03/02 00:33:19;;;;;;;27.58;12.98;;;6.70;99.90;;;;;;5032212;28;20030;-30
2022/03/02 00:35:44;;;;;;;32.35;13.80;;;6.70;99.90;;;;;;5031945;28;20151;-33
2022/03/02 00:38:11;;;;;;;25.08;11.88;;;6.70;99.90;;;;;;5021201;28;20034;-36
2022/03/02 00:40:40;;;;;;;28.83;13.43;;;6.60;99.90;;;;;;5032144;28;20730;-33
2022/03/02 00:43:07;;;;;;;31.85;13.50;;;6.70;99.90;;;;;;5025504;28;20577;-31
2022/03/02 00:45:33;;;;;;;29.37;13.27;;;6.70;99.90;;;;;;5012932;28;20025;-32
2022/03/02 00:48:00;;;;;;;30.58;13.55;;;6.60;99.90;;;;;;5012963;28;20277;-32
2022/03/02 00:50:27;;;;;;;30.55;13.52;;;6.80;99.90;;;;;;5014370;28;20022;-32
2022/03/02 00:52:52;;;;;;;32.17;13.93;;;6.80;99.90;;;;;;5014477;28;20033;-37
2022/03/02 00:55:18;;;;;;;26.27;12.70;;;6.70;99.90;;;;;;5020666;28;20108;-32
2022/03/02 00:57:44;;;;;;;26.98;13.63;;;6.80;99.90;;;;;;5021544;28;20083;-34
2022/03/02 01:00:11;;;;;;;29.30;13.07;;;6.70;99.90;;;;;;5020962;28;20034;-32
2022/03/02 01:02:37;;;;;;;39.53;14.65;;;6.60;99.90;;;;;;5014283;28;20083;-31
2022/03/02 01:05:05;;;;;;;34.53;14.18;;;6.60;99.90;;;;;;5029561;28;20453;-32
2022/03/02 01:07:30;;;;;;;31.40;14.32;;;6.50;99.90;;;;;;5032083;28;20036;-33
2022/03/02 01:09:56;;;;;;;35.55;14.25;;;6.50;99.90;;;;;;5018758;28;20109;-33
2022/03/02 01:12:22;;;;;;;35.28;15.00;;;6.50;99.90;;;;;;5027198;28;20027;-33
2022/03/02 01:14:48;;;;;;;29.45;13.98;;;6.60;99.90;;;;;;5030792;28;20468;-31
2022/03/02 01:17:13;;;;;;;30.52;13.05;;;6.60;99.90;;;;;;5025344;28;20029;-30
2022/03/02 01:19:39;;;;;;;30.45;13.38;;;6.50;99.90;;;;;;5020012;28;20458;-35
2022/03/02 01:22:06;;;;;;;29.13;14.05;;;6.50;99.90;;;;;;5026406;28;20044;-30
2022/03/02 01:24:31;;;;;;;28.83;13.70;;;6.40;99.90;;;;;;5025985;28;20505;-30
2022/03/02 01:26:57;;;;;;;35.05;14.95;;;6.30;99.90;;;;;;5027622;28;20030;-33
2022/03/02 01:29:23;;;;;;;35.03;15.10;;;6.30;99.90;;;;;;5046697;28;20123;-33
2022/03/02 01:31:49;;;;;;;30.77;14.60;;;6.30;99.90;;;;;;5025082;28;20030;-30
2022/03/02 01:34:15;;;;;;;34.20;15.77;;;6.20;99.90;;;;;;5016598;28;20505;-31
2022/03/02 01:36:40;;;;;;;31.17;13.73;;;6.30;99.90;;;;;;5030352;28;20057;-36
2022/03/02 01:39:06;;;;;;;32.58;15.02;;;6.20;99.90;;;;;;5034493;28;20107;-31
2022/03/02 01:41:32;;;;;;;33.13;15.10;;;6.20;99.90;;;;;;5028518;28;20091;-32
2022/03/02 01:43:57;;;;;;;31.42;14.40;;;6.20;99.90;;;;;;5030303;28;20080;-33
2022/03/02 01:46:23;;;;;;;35.10;15.82;;;6.10;99.90;;;;;;5024309;28;20497;-30
2022/03/02 01:48:49;;;;;;;31.25;14.00;;;6.10;99.90;;;;;;5015534;28;20447;-30
2022/03/02 01:51:15;;;;;;;29.00;14.85;;;6.10;99.90;;;;;;5023276;28;20426;-33
2022/03/02 01:53:41;;;;;;;32.75;15.20;;;6.10;99.90;;;;;;5031799;28;20535;-30
2022/03/02 01:56:07;;;;;;;29.75;14.32;;;6.10;99.90;;;;;;5017304;28;20030;-35
2022/03/02 01:58:33;;;;;;;28.23;14.73;;;6.10;99.90;;;;;;5019186;28;20056;-47
2022/03/02 02:01:00;;;;;;;37.63;15.40;;;6.20;99.90;;;;;;5026553;28;20037;-36
2022/03/02 02:03:26;;;;;;;32.03;14.23;;;6.20;99.90;;;;;;5014823;28;20037;-32
2022/03/02 02:05:52;;;;;;;32.03;15.15;;;6.20;99.90;;;;;;5015982;28;20453;-30
2022/03/02 02:08:18;;;;;;;33.78;13.82;;;6.20;99.90;;;;;;5028793;28;20108;-30
2022/03/02 02:10:43;;;;;;;37.33;14.88;;;6.30;99.90;;;;;;5031443;28;20033;-33
2022/03/02 02:13:10;;;;;;;27.98;13.52;;;6.30;99.90;;;;;;5032008;28;20028;-31
2022/03/02 02:15:35;;;;;;;29.67;14.50;;;6.30;99.90;;;;;;5034283;28;20056;-31
2022/03/02 02:18:01;;;;;;;33.08;13.25;;;6.40;99.90;;;;;;5025498;28;20053;-31
2022/03/02 02:20:27;;;;;;;30.38;15.00;;;6.40;99.90;;;;;;5034457;28;20026;-33
2022/03/02 02:22:52;;;;;;;30.02;14.02;;;6.40;99.90;;;;;;5033930;28;20033;-32
2022/03/02 02:25:19;;;;;;;35.85;15.05;;;6.30;99.90;;;;;;5024040;28;20085;-32
2022/03/02 02:27:47;;;;;;;29.15;14.98;;;6.40;99.90;;;;;;5031619;28;20482;-46
2022/03/02 02:30:14;;;;;;;30.70;13.20;;;6.40;99.90;;;;;;5031932;28;20110;-32
2022/03/02 02:32:41;;;;;;;32.85;13.98;;;6.50;99.90;;;;;;5030026;28;20368;-33
2022/03/02 02:35:08;;;;;;;32.17;13.98;;;6.40;99.90;;;;;;5015413;28;20030;-31
2022/03/02 02:37:36;;;;;;;35.25;15.07;;;6.40;99.90;;;;;;5026493;28;20083;-31
2022/03/02 02:42:55;;;;;;;32.30;13.65;;;6.40;99.90;;;;;;5016649;28;20131;-35
2022/03/02 02:45:22;;;;;;;27.15;13.75;;;6.40;99.90;;;;;;5033656;28;20485;-35
2022/03/02 02:47:50;;;;;;;35.42;14.30;;;6.40;99.90;;;;;;5019209;28;20489;-36
2022/03/02 02:50:21;;;;;;;32.00;14.27;;;6.40;99.90;;;;;;5022075;28;20022;-33
2022/03/02 02:52:47;;;;;;;27.23;13.20;;;6.40;99.90;;;;;;5014149;28;20026;-31
2022/03/02 02:55:14;;;;;;;29.80;13.43;;;6.40;99.90;;;;;;5015604;28;20086;-31
2022/03/02 02:57:40;;;;;;;28.77;14.00;;;6.40;99.90;;;;;;5024093;28;20065;-31
2022/03/02 03:00:09;;;;;;;32.35;14.77;;;6.40;99.90;;;;;;5015629;28;20281;-33
2022/03/02 03:02:35;;;;;;;32.83;14.13;;;6.40;99.90;;;;;;5028730;28;20053;-36
2022/03/02 03:05:01;;;;;;;34.50;14.50;;;6.40;99.90;;;;;;5020149;28;20088;-30
2022/03/02 03:07:26;;;;;;;33.92;14.82;;;6.30;99.90;;;;;;5014797;28;20022;-33
2022/03/02 03:09:52;;;;;;;29.27;14.18;;;6.30;99.90;;;;;;5014058;28;20030;-38
2022/03/02 03:12:18;;;;;;;32.58;15.07;;;6.30;99.90;;;;;;5016837;28;20014;-36
2022/03/02 03:14:43;;;;;;;34.92;15.70;;;6.30;99.90;;;;;;5032596;28;20033;-38
2022/03/02 03:17:09;;;;;;;30.85;15.13;;;6.30;99.90;;;;;;5021143;28;20508;-34
2022/03/02 03:19:35;;;;;;;33.30;14.95;;;6.30;99.90;;;;;;5019796;28;20068;-32
2022/03/02 03:22:07;;;;;;;28.48;13.82;;;6.30;99.90;;;;;;5017311;28;20022;-32
2022/03/02 03:24:33;;;;;;;33.22;14.52;;;6.30;99.90;;;;;;5022243;28;20030;-39
2022/03/02 03:27:00;;;;;;;27.33;14.55;;;6.30;99.90;;;;;;5030748;28;20072;-36
2022/03/02 03:29:25;;;;;;;33.22;15.45;;;6.40;99.90;;;;;;5032735;28;20108;-31
2022/03/02 03:31:51;;;;;;;29.65;13.38;;;6.40;99.90;;;;;;5029539;28;20489;-32
2022/03/02 03:34:16;;;;;;;29.38;13.18;;;6.40;99.90;;;;;;5015233;28;20074;-32
2022/03/02 03:36:42;;;;;;;26.90;13.43;;;6.40;99.90;;;;;;5014669;28;20034;-30
2022/03/02 03:39:08;;;;;;;31.02;13.98;;;6.40;99.90;;;;;;5013513;28;20188;-31
2022/03/02 03:41:34;;;;;;;31.80;13.80;;;6.30;99.90;;;;;;5015073;28;20029;-32
2022/03/02 03:44:00;;;;;;;32.38;13.82;;;6.30;99.90;;;;;;5032809;28;20048;-30
2022/03/02 03:46:26;;;;;;;33.50;14.85;;;6.30;99.90;;;;;;5024022;28;20018;-30
2022/03/02 03:48:52;;;;;;;35.58;14.45;;;6.20;99.90;;;;;;5012332;28;20061;-29
2022/03/02 03:51:17;;;;;;;28.20;14.15;;;6.20;99.90;;;;;;5036473;28;20042;-30
2022/03/02 03:53:43;;;;;;;31.48;14.27;;;6.20;99.90;;;;;;5013554;28;20065;-30
2022/03/02 03:56:09;;;;;;;31.67;13.68;;;6.20;99.90;;;;;;5014096;28;20117;-32
2022/03/02 03:58:34;;;;;;;32.30;13.95;;;6.10;99.90;;;;;;5014091;28;20422;-34
2022/03/02 04:01:00;;;;;;;28.27;13.43;;;6.10;99.90;;;;;;5020910;28;20030;-32
2022/03/02 04:03:26;;;;;;;29.92;13.45;;;6.00;99.90;;;;;;5031308;28;20057;-33
2022/03/02 04:05:51;;;;;;;32.00;14.50;;;5.90;99.90;;;;;;5032335;28;20441;-36
2022/03/02 04:08:17;;;;;;;32.40;14.32;;;5.90;99.90;;;;;;5016997;28;20501;-34
2022/03/02 04:10:45;;;;;;;35.42;15.02;;;5.80;99.90;;;;;;5015281;28;20056;-36
2022/03/02 04:13:11;;;;;;;29.75;13.93;;;5.80;99.90;;;;;;5028141;28;20036;-33
2022/03/02 04:15:38;;;;;;;27.58;13.68;;;5.90;99.90;;;;;;5015921;28;20050;-35
2022/03/02 04:18:06;;;;;;;31.83;14.88;;;5.90;99.90;;;;;;5014833;28;20057;-29
2022/03/02 04:20:32;;;;;;;;;;;6.00;99.90;;;;;;5013187;28;20104;-31
2022/03/02 04:22:57;;;;;;;30.10;13.40;;;6.00;99.90;;;;;;5013335;28;19909;-32
2022/03/02 04:25:23;;;;;;;36.20;14.75;;;6.10;99.90;;;;;;5027630;28;20470;-35
2022/03/02 04:27:48;;;;;;;31.73;13.68;;;6.10;99.90;;;;;;5021117;28;20022;-34
2022/03/02 04:30:14;;;;;;;33.15;14.43;;;6.10;99.90;;;;;;5032002;28;20171;-30
2022/03/02 04:32:40;;;;;;;28.95;14.70;;;6.10;99.90;;;;;;5023947;28;20029;-31
2022/03/02 04:35:08;;;;;;;27.52;14.18;;;6.00;99.90;;;;;;5030659;28;20029;-30
2022/03/02 04:37:34;;;;;;;;;;;5.90;99.90;;;;;;5020168;28;20030;-30
2022/03/02 04:39:59;;;;;;;31.48;13.32;;;5.90;99.90;;;;;;5015861;28;20461;-34
2022/03/02 04:42:25;;;;;;;37.17;13.82;;;5.90;99.90;;;;;;5030680;28;20029;-32
2022/03/02 04:44:50;;;;;;;35.28;15.10;;;5.90;99.90;;;;;;5032142;28;20466;-33
2022/03/02 04:47:16;;;;;;;29.77;13.48;;;5.80;99.90;;;;;;5024542;28;20393;-30
2022/03/02 04:49:41;;;;;;;28.17;13.73;;;5.80;99.90;;;;;;5019890;28;20076;-33
2022/03/02 04:52:07;;;;;;;32.33;15.05;;;5.80;99.90;;;;;;5016335;28;20024;-33
2022/03/02 04:57:17;;;;;;;37.17;13.80;;;5.90;99.90;;;;;;5023043;28;20032;-32
2022/03/02 04:59:42;;;;;;;29.80;13.95;;;5.90;99.90;;;;;;5034780;28;20029;-31
2022/03/02 05:02:08;;;;;;;34.72;13.75;;;5.90;99.90;;;;;;5028529;28;20026;-31
2022/03/02 05:04:34;;;;;;;36.33;13.75;;;5.90;99.90;;;;;;5015853;28;20475;-32
2022/03/02 05:06:59;;;;;;;29.95;14.60;;;5.90;99.90;;;;;;5022192;28;20029;-32
2022/03/02 05:09:25;;;;;;;33.20;13.95;;;5.90;99.90;;;;;;5035760;28;20101;-32
2022/03/02 05:11:50;;;;;;;25.95;12.50;;;6.00;99.90;;;;;;5035012;28;20112;-32
2022/03/02 05:14:16;;;;;;;29.20;14.30;;;6.00;99.90;;;;;;5034140;28;20030;-30
2022/03/02 05:16:41;;;;;;;27.73;12.90;;;6.10;99.90;;;;;;5027983;28;20497;-36
2022/03/02 05:19:07;;;;;;;31.65;15.63;;;6.10;99.90;;;;;;5015720;28;20092;-33
2022/03/02 05:21:33;;;;;;;26.35;13.55;;;6.10;99.90;;;;;;5015795;28;20022;-30
2022/03/02 05:23:58;;;;;;;31.65;15.18;;;6.10;99.90;;;;;;5020684;28;20068;-34
2022/03/02 05:26:24;;;;;;;32.42;15.48;;;6.10;99.90;;;;;;5015382;28;20025;-30
2022/03/02 05:28:49;;;;;;;32.90;14.00;;;6.00;99.90;;;;;;5016868;28;20533;-35
2022/03/02 05:31:15;;;;;;;28.48;13.38;;;6.00;99.90;;;;;;5032748;28;20500;-33
2022/03/02 05:33:41;;;;;;;31.73;14.73;;;6.10;99.90;;;;;;5017260;28;20473;-31
2022/03/02 05:36:06;;;;;;;30.75;13.60;;;6.10;99.90;;;;;;5046451;28;20022;-33
2022/03/02 05:38:32;;;;;;;32.30;13.98;;;6.00;99.90;;;;;;5033492;28;20025;-31
2022/03/02 05:40:57;;;;;;;29.17;13.35;;;6.00;99.90;;;;;;5030538;28;20045;-30
2022/03/02 05:43:23;;;;;;;31.85;12.32;;;6.00;99.90;;;;;;5020875;28;20022;-37
2022/03/02 05:45:48;;;;;;;28.40;14.10;;;6.00;99.90;;;;;;5015305;28;20029;-30
2022/03/02 05:48:14;;;;;;;32.83;14.23;;;6.10;99.90;;;;;;5030298;28;20037;-31
2022/03/02 05:50:40;;;;;;;29.08;14.35;;;6.00;99.90;;;;;;5031264;28;20029;-31
2022/03/02 05:53:05;;;;;;;34.63;14.35;;;6.00;99.90;;;;;;5016297;28;20494;-31
2022/03/02 05:55:31;;;;;;;29.92;14.27;;;6.00;99.90;;;;;;5015243;28;20028;-32
2022/03/02 05:57:57;;;;;;;30.63;13.57;;;5.90;99.90;;;;;;5017489;28;20036;-31
2022/03/02 06:00:22;;;;;;;29.38;13.57;;;5.90;99.90;;;;;;5017987;28;20018;-30
2022/03/02 06:02:48;;;;;;;26.83;12.73;;;5.90;99.90;;;;;;5014936;28;20499;-36
2022/03/02 06:05:14;;;;;;;31.17;13.88;;;5.90;99.90;;;;;;5022466;28;20041;-31
2022/03/02 06:07:39;;;;;;;26.58;13.35;;;5.80;99.90;;;;;;5022813;28;20030;-36
2022/03/02 06:10:06;;;;;;;30.08;13.50;;;5.90;99.90;;;;;;5014864;28;20088;-31
2022/03/02 06:12:31;;;;;;;35.58;13.35;;;5.80;99.90;;;;;;5016434;28;20462;-34
2022/03/02 06:14:58;;;;;;;37.70;13.98;;;5.70;99.90;;;;;;5014995;28;20029;-37
2022/03/02 06:17:23;;;;;;;29.20;12.63;;;5.70;99.90;;;;;;5015631;28;20065;-33
2022/03/02 06:19:49;;;;;;;36.05;13.93;;;5.60;99.90;;;;;;5014901;28;20141;-32
2022/03/02 06:22:17;;;;;;;34.45;13.73;;;5.60;99.90;;;;;;5014585;28;20542;-46
2022/03/02 06:24:43;;;;;;;28.00;12.65;;;5.50;99.90;;;;;;5026708;28;20029;-31
2022/03/02 06:27:28;;;;;;;32.30;13.55;;;5.60;99.90;;;;;;5025120;28;20018;-31
2022/03/02 06:29:53;;;;;;;31.75;13.23;;;5.60;99.90;;;;;;5030653;28;20025;-30
2022/03/02 06:32:19;;;;;;;31.48;13.65;;;5.60;99.90;;;;;;5015643;28;20080;-36
2022/03/02 06:34:44;;;;;;;37.60;15.38;;;5.70;99.90;;;;;;5020777;28;20386;-30
2022/03/02 06:37:10;;;;;;;35.00;14.43;;;5.60;99.90;;;;;;5023424;28;20057;-34
2022/03/02 06:39:36;;;;;;;30.70;13.60;;;5.60;99.90;;;;;;5018311;28;20045;-31
2022/03/02 06:42:22;;;;;;;34.15;14.38;;;5.60;99.90;;;;;;5015867;28;20030;-35
2022/03/02 06:44:55;;;;;;;23.33;11.80;;;5.60;99.90;;;;;;5018107;28;20030;-34
2022/03/02 06:47:29;;;;;;;35.28;14.27;;;5.60;99.90;;;;;;5033573;28;20033;-34
2022/03/02 06:50:08;;;;;;;30.30;12.82;;;5.60;99.90;;;;;;5032917;28;20060;-34
2022/03/02 06:52:37;;;;;;;33.53;13.32;;;5.60;99.90;;;;;;5018236;28;20033;-33
2022/03/02 06:55:06;;;;;;;32.10;12.68;;;5.60;99.90;;;;;;5022064;28;20028;-34
2022/03/02 06:57:33;;;;;;;27.30;13.27;;;5.70;99.90;;;;;;5021038;28;20026;-30
2022/03/02 07:00:04;;;;;;;28.80;13.02;;;5.70;99.90;;;;;;5031539;28;20054;-30
2022/03/02 07:02:44;;;;;;;28.40;12.48;;;5.60;99.90;;;;;;5028766;28;20508;-30
2022/03/02 07:05:10;;;;;;;30.75;13.30;;;5.70;99.90;;;;;;5021048;28;20056;-30
2022/03/02 07:07:37;;;;;;;28.00;12.68;;;5.60;99.90;;;;;;5024310;28;20033;-33
2022/03/02 07:10:05;;;;;;;31.48;12.73;;;5.60;99.90;;;;;;5022136;28;20022;-33
2022/03/02 07:12:30;;;;;;;30.05;13.43;;;5.70;99.90;;;;;;5029870;28;20036;-32
2022/03/02 07:14:57;;;;;;;36.35;15.00;;;5.70;99.90;;;;;;5033705;28;20022;-34
2022/03/02 07:17:41;;;;;;;29.67;14.55;;;5.80;99.90;;;;;;5031937;28;20036;-33
2022/03/02 07:20:13;;;;;;;35.75;13.63;;;5.80;99.90;;;;;;5021174;28;20070;-30
2022/03/02 07:22:47;;;;;;;29.77;13.68;;;5.80;99.90;;;;;;5021582;28;20041;-30
2022/03/02 07:25:33;;;;;;;34.40;13.98;;;5.80;99.90;;;;;;5023919;28;20048;-32
2022/03/02 07:28:00;;;;;;;28.88;12.30;;;5.90;99.90;;;;;;5017859;28;20021;-33
2022/03/02 07:30:27;;;;;;;33.00;14.05;;;5.90;99.90;;;;;;5031216;28;20017;-32
2022/03/02 07:32:56;;;;;;;33.42;13.88;;;6.00;99.90;;;;;;5033320;28;20053;-31
2022/03/02 07:35:23;;;;;;;29.83;12.85;;;6.10;99.90;;;;;;5024206;28;20021;-36
2022/03/02 07:37:49;;;;;;;26.90;12.00;;;6.20;99.90;;;;;;5032669;28;20033;-34
2022/03/02 07:40:15;;;;;;;33.03;13.48;;;6.10;99.90;;;;;;5014108;28;20429;-33
2022/03/02 07:42:41;;;;;;;30.80;13.52;;;6.20;99.90;;;;;;5027164;28;20032;-34
2022/03/02 07:45:08;;;;;;;28.70;13.48;;;6.20;99.90;;;;;;5031126;28;20057;-35
2022/03/02 07:47:34;;;;;;;32.72;13.82;;;6.20;99.90;;;;;;5015705;28;20568;-30
2022/03/02 07:50:00;;;;;;;30.73;14.35;;;6.30;99.90;;;;;;5027379;28;20021;-32
2022/03/02 07:52:28;;;;;;;32.90;13.60;;;6.30;99.90;;;;;;5033208;28;20109;-42
2022/03/02 07:55:02;;;;;;;;;;;6.30;99.90;;;;;;5031409;28;20042;-31
2022/03/02 07:57:29;;;;;;;27.92;13.27;;;6.40;99.90;;;;;;5020283;28;19916;-34
2022/03/02 07:59:57;;;;;;;30.03;14.27;;;6.40;99.90;;;;;;5016137;28;20105;-31
2022/03/02 08:02:24;;;;;;;30.35;13.60;;;6.50;99.90;;;;;;5020942;28;20284;-29
2022/03/02 08:04:52;;;;;;;36.07;15.20;;;6.50;99.90;;;;;;5013535;28;20054;-33
2022/03/02 08:07:19;;;;;;;30.13;14.43;;;6.60;99.90;;;;;;5013182;28;20025;-31
2022/03/02 08:09:44;;;;;;;27.48;12.93;;;6.60;99.90;;;;;;5014251;28;20060;-33
2022/03/02 08:12:12;;;;;;;36.75;13.55;;;6.60;99.90;;;;;;5030501;28;20045;-33
2022/03/02 08:14:37;;;;;;;31.77;13.25;;;6.80;99.90;;;;;;5030913;28;20100;-34
2022/03/02 08:17:04;;;;;;;26.02;13.30;;;6.90;99.90;;;;;;5031148;28;20057;-38
2022/03/02 08:19:33;;;;;;;32.60;12.70;;;7.00;99.90;;;;;;5031920;28;20079;-36
2022/03/02 08:22:04;;;;;;;30.35;12.85;;;7.00;99.90;;;;;;5022944;28;20427;-39
2022/03/02 08:24:31;;;;;;;32.60;13.98;;;7.20;99.90;;;;;;5018017;28;20030;-32
2022/03/02 08:26:59;;;;;;;28.52;13.23;;;7.20;99.90;;;;;;5016700;28;20040;-30
2022/03/02 08:29:26;;;;;;;;;;;7.30;99.90;;;;;;5021019;28;20485;-30
2022/03/02 08:31:55;;;;;;;29.08;12.82;;;7.30;99.90;;;;;;5034508;28;19948;-35
2022/03/02 08:34:21;;;;;;;27.00;11.98;;;7.40;99.90;;;;;;5035156;28;20029;-35
2022/03/02 08:36:49;;;;;;;31.52;13.80;;;7.50;99.90;;;;;;5024538;28;20036;-30
2022/03/02 08:39:15;;;;;;;25.98;12.63;;;7.70;99.90;;;;;;5034374;28;20022;-36
2022/03/02 08:41:40;;;;;;;25.02;11.88;;;7.80;99.90;;;;;;5035741;28;20147;-34
2022/03/02 08:44:08;;;;;;;28.45;13.35;;;8.00;99.90;;;;;;5034145;28;20028;-31
2022/03/02 08:46:33;;;;;;;25.50;11.73;;;8.10;99.90;;;;;;5036209;28;20044;-31
2022/03/02 08:48:59;;;;;;;26.05;11.70;;;8.10;99.90;;;;;;5034682;28;20030;-31
2022/03/02 08:51:26;;;;;;;26.80;12.70;;;8.20;99.90;;;;;;5017964;28;20081;-33
2022/03/02 08:53:58;;;;;;;29.20;11.23;;;8.10;99.90;;;;;;5017330;28;20564;-33
2022/03/02 08:56:25;;;;;;;25.48;12.43;;;8.10;99.90;;;;;;5015012;28;20137;-31
2022/03/02 08:58:52;;;;;;;26.27;12.82;;;8.10;99.90;;;;;;5021023;28;20084;-38
2022/03/02 09:01:19;;;;;;;30.10;13.18;;;8.20;99.90;;;;;;5016117;28;20056;-35
2022/03/02 09:03:48;;;;;;;28.83;12.70;;;8.40;99.90;;;;;;5019738;28;20038;-31
2022/03/02 09:06:18;;;;;;;25.90;11.80;;;8.40;99.90;;;;;;5023465;28;20026;-35
2022/03/02 09:08:44;;;;;;;27.73;12.05;;;8.40;99.90;;;;;;5020104;28;20052;-33
2022/03/02 09:11:10;;;;;;;30.45;13.27;;;8.50;99.90;;;;;;5023914;28;20112;-30
2022/03/02 09:13:39;;;;;;;33.80;11.93;;;8.50;99.90;;;;;;5030416;28;20092;-33
2022/03/02 09:16:06;;;;;;;26.45;12.18;;;8.60;99.90;;;;;;5032898;28;20033;-34
2022/03/02 09:18:32;;;;;;;31.13;12.90;;;8.70;99.90;;;;;;5025176;28;20547;-35
2022/03/02 09:21:01;;;;;;;22.98;11.90;;;8.80;99.90;;;;;;5034932;28;20037;-32
2022/03/02 09:23:31;;;;;;;25.75;11.75;;;8.90;99.90;;;;;;5035349;28;20494;-32
2022/03/02 09:26:03;;;;;;;25.13;11.85;;;9.00;99.90;;;;;;5034315;28;20127;-34
2022/03/02 09:28:34;;;;;;;27.05;11.93;;;8.90;99.90;;;;;;5033271;28;20470;-38
2022/03/02 09:31:03;;;;;;;26.50;12.63;;;8.90;99.90;;;;;;5021885;28;20026;-31
2022/03/02 09:33:30;;;;;;;28.52;11.68;;;9.00;99.90;;;;;;5015435;28;20527;-38
2022/03/02 09:35:56;;;;;;;30.35;12.68;;;9.00;99.90;;;;;;5015386;28;20030;-33
2022/03/02 09:38:27;;;;;;;28.42;12.15;;;9.00;99.90;;;;;;5026874;28;20040;-31
2022/03/02 09:40:55;;;;;;;25.20;11.60;;;9.00;99.90;;;;;;5031191;28;20034;-33
2022/03/02 09:43:25;;;;;;;24.75;10.52;;;9.20;99.90;;;;;;5029491;28;20051;-34
2022/03/02 09:45:54;;;;;;;22.67;10.90;;;9.30;99.90;;;;;;5033715;28;20022;-35
2022/03/02 09:48:32;;;;;;;28.08;12.18;;;9.40;99.90;;;;;;5027358;28;20037;-46
2022/03/02 09:50:59;;;;;;;;;;;9.50;99.90;;;;;;5029228;28;20517;-43
2022/03/02 09:53:28;;;;;;;25.52;11.32;;;9.60;99.90;;;;;;5018406;28;19909;-32
2022/03/02 09:56:01;;;;;;;24.92;11.00;;;9.70;99.90;;;;;;5017814;28;20026;-33
2022/03/02 09:58:28;;;;;;;25.73;10.57;;;9.80;99.90;;;;;;5031475;28;20023;-34
2022/03/02 10:00:59;;;;;;;25.85;10.88;;;9.80;99.90;;;;;;5030436;28;20022;-33
2022/03/02 10:03:33;;;;;;;33.20;10.68;;;9.80;99.90;;;;;;5022268;28;20508;-34
2022/03/02 10:06:03;;;;;;;23.33;10.68;;;9.90;99.90;;;;;;5027833;28;20046;-34
2022/03/02 10:08:33;;;;;;;23.17;10.52;;;9.90;99.90;;;;;;5034001;28;20104;-32
2022/03/02 10:11:03;;;;;;;30.15;11.73;;;10.10;99.90;;;;;;5030086;28;20013;-39
2022/03/02 10:13:29;;;;;;;24.33;11.30;;;10.20;99.90;;;;;;5026137;28;20033;-34
2022/03/02 10:15:57;;;;;;;27.30;10.85;;;10.30;99.90;;;;;;5032767;28;20033;-31
2022/03/02 10:18:25;;;;;;;21.17;10.48;;;10.40;99.90;;;;;;5016774;28;20041;-32
2022/03/02 10:21:03;;;;;;;27.25;11.05;;;10.50;99.90;;;;;;5028043;28;20041;-32
2022/03/02 10:23:41;;;;;;;19.00;8.57;;;10.60;99.90;;;;;;5020975;28;20478;-34
2022/03/02 10:26:23;;;;;;;22.27;10.50;;;10.70;99.80;;;;;;5021179;28;20620;-38
2022/03/02 10:28:56;;;;;;;17.35;8.95;;;10.90;98.80;;;;;;5033519;28;20114;-32
2022/03/02 10:31:45;;;;;;;21.42;9.43;;;10.90;98.00;;;;;;5026979;28;20105;-32
2022/03/02 10:34:26;;;;;;;21.35;10.13;;;11.00;97.90;;;;;;5028794;28;20045;-34
2022/03/02 10:37:09;;;;;;;20.25;9.80;;;10.90;98.00;;;;;;5027986;28;20389;-35
2022/03/02 10:39:54;;;;;;;21.30;9.77;;;10.90;98.20;;;;;;5015829;28;20034;-33
2022/03/02 10:42:29;;;;;;;17.42;9.07;;;10.90;98.80;;;;;;5014183;28;20044;-34
2022/03/02 10:45:10;;;;;;;20.40;10.57;;;11.00;98.20;;;;;;5013530;28;20478;-33
2022/03/02 10:47:53;;;;;;;22.58;10.68;;;11.00;99.10;;;;;;5014375;28;20532;-34
2022/03/02 10:50:20;;;;;;;26.13;9.45;;;11.10;98.30;;;;;;5014124;28;20509;-35
2022/03/02 10:52:50;;;;;;;20.52;9.73;;;11.10;96.70;;;;;;5014093;28;20018;-32
2022/03/02 10:55:16;;;;;;;26.38;9.00;;;11.10;97.10;;;;;;5013923;28;20036;-37
2022/03/02 10:57:47;;;;;;;18.83;9.00;;;11.10;97.60;;;;;;5013642;28;20018;-34
2022/03/02 11:00:17;;;;;;;21.13;9.73;;;11.30;97.30;;;;;;5013873;28;20478;-31
2022/03/02 11:02:45;;;;;;;20.05;9.20;;;11.30;97.00;;;;;;5014054;28;20390;-35
2022/03/02 11:05:16;;;;;;;20.77;9.50;;;11.20;96.90;;;;;;5017652;28;20029;-32
2022/03/02 11:07:42;;;;;;;21.70;9.07;;;11.40;96.90;;;;;;5033772;28;20024;-31
2022/03/02 11:10:11;;;;;;;19.92;9.68;;;11.50;96.00;;;;;;5033170;28;20096;-36
2022/03/02 11:12:42;;;;;;;18.45;8.65;;;11.50;95.60;;;;;;5033283;28;20049;-33
2022/03/02 11:15:09;;;;;;;20.00;8.73;;;11.50;97.10;;;;;;5033437;28;20429;-32
2022/03/02 11:17:36;;;;;;;17.50;8.75;;;11.60;96.00;;;;;;5033220;28;20044;-32
2022/03/02 11:20:07;;;;;;;20.37;8.93;;;11.60;95.00;;;;;;5033210;28;20087;-32
2022/03/02 11:22:34;;;;;;;16.30;8.23;;;11.60;94.90;;;;;;5033215;28;20830;-35
2022/03/02 11:25:00;;;;;;;15.73;8.60;;;11.50;95.40;;;;;;5033075;28;20120;-32
2022/03/02 11:27:41;;;;;;;15.15;8.52;;;11.50;96.00;;;;;;5033429;28;20021;-37
2022/03/02 11:30:11;;;;;;;21.50;9.35;;;11.60;95.40;;;;;;5033086;28;20080;-35
2022/03/02 11:32:40;;;;;;;20.38;9.18;;;11.80;95.50;;;;;;5033092;28;20100;-35
2022/03/02 11:35:08;;;;;;;21.08;9.00;;;11.90;94.70;;;;;;5033236;28;20386;-32
2022/03/02 11:37:35;;;;;;;21.88;9.02;;;12.00;94.90;;;;;;5033296;28;20372;-33
2022/03/02 11:40:04;;;;;;;20.35;10.02;;;12.10;94.30;;;;;;5033152;28;20163;-32
2022/03/02 11:42:31;;;;;;;17.45;8.40;;;12.00;94.60;;;;;;5033131;28;20033;-33
2022/03/02 11:44:59;;;;;;;17.98;8.02;;;12.10;95.40;;;;;;5033053;28;20433;-32
2022/03/02 11:47:33;;;;;;;13.70;7.65;;;12.20;95.20;;;;;;5033211;28;20466;-32
2022/03/02 11:49:59;;;;;;;17.15;9.02;;;12.40;94.50;;;;;;5032647;28;20029;-35
2022/03/02 11:52:34;;;;;;;18.92;9.02;;;12.40;94.50;;;;;;5032731;28;20159;-34
2022/03/02 11:55:12;;;;;;;18.75;9.15;;;12.50;94.70;;;;;;5032411;28;20040;-38
2022/03/02 11:57:41;;;;;;;;;;;12.60;94.60;;;;;;5033148;28;20033;-32
2022/03/02 12:00:14;;;;;;;18.70;8.95;;;12.70;94.20;;;;;;5032648;28;20358;-31
2022/03/02 12:03:02;;;;;;;20.35;8.30;;;12.70;94.80;;;;;;5012645;28;20100;-35
2022/03/02 12:05:31;;;;;;;20.73;9.48;;;12.60;94.00;;;;;;5012734;28;20060;-31
2022/03/02 12:08:23;;;;;;;;;;;12.60;94.00;;;;;;5013565;28;20033;-35
2022/03/02 12:10:54;;;;;;;25.55;10.85;;;12.70;94.80;;;;;;5012573;28;19909;-34
2022/03/02 12:13:20;;;;;;;19.80;9.50;;;12.70;94.80;;;;;;5013094;28;20018;-34
2022/03/02 12:15:47;;;;;;;18.77;8.85;;;12.80;94.50;;;;;;5013040;28;20042;-36
2022/03/02 12:18:15;;;;;;;18.73;10.00;;;12.90;95.40;;;;;;5011456;28;20492;-33
2022/03/02 12:20:51;;;;;;;18.90;9.50;;;13.00;95.10;;;;;;5013017;28;20022;-33
2022/03/02 12:23:22;;;;;;;19.88;9.82;;;13.00;94.30;;;;;;5012933;28;20030;-34
2022/03/02 12:25:47;;;;;;;19.70;8.95;;;13.00;94.30;;;;;;5012689;28;20026;-31
2022/03/02 12:28:18;;;;;;;19.95;9.00;;;13.10;94.90;;;;;;5012734;28;20033;-45
2022/03/02 12:30:44;;;;;;;17.98;9.57;;;13.20;94.00;;;;;;5012658;28;20029;-35
2022/03/02 12:33:10;;;;;;;16.23;8.50;;;13.30;94.90;;;;;;5012539;28;20026;-33
2022/03/02 12:35:36;;;;;;;17.63;8.35;;;13.40;94.40;;;;;;5012901;28;20059;-35
2022/03/02 12:38:08;;;;;;;14.63;7.28;;;13.50;92.80;;;;;;5011149;28;20117;-32
2022/03/02 12:40:40;;;;;;;16.02;7.97;;;13.40;92.50;;;;;;5012818;28;20037;-33
2022/03/02 12:43:08;;;;;;;22.05;8.57;;;13.40;92.20;;;;;;5012895;28;20048;-34
2022/03/02 12:45:41;;;;;;;14.90;7.68;;;13.30;92.60;;;;;;5012707;28;20042;-36
2022/03/02 12:48:07;;;;;;;14.88;8.05;;;13.40;91.90;;;;;;5011332;28;20037;-34